createdAt,value
2023-04-04T00:02:37.012Z,0.88
2023-04-04T00:05:04.302Z,1.20
2023-04-04T00:07:30.891Z,0.90
2023-04-04T00:09:57.345Z,0.75
2023-04-04T00:12:26.688Z,0.82
2023-04-04T00:14:54.792Z,0.77
2023-04-04T00:17:21.200Z,0.85
2023-04-04T00:19:47.894Z,0.90
2023-04-04T00:22:14.422Z,1.13
2023-04-04T00:24:40.907Z,0.93
2023-04-04T00:27:07.293Z,1.10
2023-04-04T00:29:34.628Z,1.15
2023-04-04T00:32:01.413Z,1.00
2023-04-04T00:34:27.919Z,0.88
2023-04-04T00:36:54.400Z,1.08
2023-04-04T00:39:20.991Z,1.00
2023-04-04T00:41:50.472Z,0.65
2023-04-04T00:44:17.049Z,1.00
2023-04-04T00:46:43.663Z,0.60
2023-04-04T00:49:10.257Z,0.85
2023-04-04T00:51:36.788Z,0.90
2023-04-04T00:54:03.311Z,0.95
2023-04-04T00:56:30.716Z,1.00
2023-04-04T00:58:57.483Z,0.93
2023-04-04T01:01:25.840Z,0.90
2023-04-04T01:03:52.829Z,0.80
2023-04-04T01:06:20.165Z,1.25
2023-04-04T01:08:47.070Z,0.90
2023-04-04T01:11:13.659Z,0.93
2023-04-04T01:13:40.470Z,1.05
2023-04-04T01:16:06.984Z,1.23
2023-04-04T01:18:35.088Z,0.80
2023-04-04T01:21:03.350Z,1.00
2023-04-04T01:23:43.254Z,1.00
2023-04-04T01:26:09.942Z,1.00
2023-04-04T01:28:36.316Z,1.13
2023-04-04T01:31:05.791Z,0.85
2023-04-04T01:36:01.951Z,0.90
2023-04-04T01:38:31.986Z,0.98
2023-04-04T01:41:02.632Z,0.65
2023-04-04T01:43:32.577Z,0.70
2023-04-04T01:46:02.103Z,1.10
2023-04-04T01:50:55.440Z,0.70
2023-04-04T01:53:22.027Z,0.95
2023-04-04T01:55:48.530Z,1.08
2023-04-04T01:58:15.523Z,1.00
2023-04-04T02:00:42.166Z,1.08
2023-04-04T02:03:09.418Z,1.00
2023-04-04T02:05:36.058Z,1.00
2023-04-04T02:08:03.067Z,1.20
2023-04-04T02:10:30.505Z,1.50
2023-04-04T02:12:58.358Z,1.20
2023-04-04T02:15:25.297Z,1.02
2023-04-04T02:17:52.535Z,1.20
2023-04-04T02:20:19.556Z,0.98
2023-04-04T02:22:55.777Z,1.10
2023-04-04T02:25:23.002Z,0.90
2023-04-04T02:27:49.430Z,1.38
2023-04-04T02:30:16.403Z,1.13
2023-04-04T02:32:43.160Z,1.10
2023-04-04T02:35:09.679Z,1.70
2023-04-04T02:37:36.277Z,1.35
2023-04-04T02:40:03.073Z,1.10
2023-04-04T02:42:29.431Z,1.23
2023-04-04T02:44:56.311Z,1.10
2023-04-04T02:47:22.678Z,1.10
2023-04-04T02:49:49.112Z,1.50
2023-04-04T02:52:15.555Z,1.40
2023-04-04T02:54:41.966Z,1.17
2023-04-04T02:57:08.397Z,1.50
2023-04-04T02:59:34.833Z,1.33
2023-04-04T03:02:01.518Z,1.10
2023-04-04T03:04:29.134Z,1.40
2023-04-04T03:06:55.580Z,1.20
2023-04-04T03:09:22.006Z,1.33
2023-04-04T03:11:49.858Z,1.48
2023-04-04T03:14:16.352Z,1.20
2023-04-04T03:16:42.826Z,1.20
2023-04-04T03:19:09.231Z,1.10
2023-04-04T03:21:35.785Z,1.30
2023-04-04T03:24:02.147Z,1.33
2023-04-04T03:26:29.347Z,1.45
2023-04-04T03:28:55.830Z,1.75
2023-04-04T03:31:22.485Z,1.25
2023-04-04T03:33:49.138Z,1.38
2023-04-04T03:36:15.726Z,1.30
2023-04-04T03:38:42.432Z,1.10
2023-04-04T03:41:08.864Z,1.02
2023-04-04T03:43:35.340Z,1.23
2023-04-04T03:46:05.392Z,1.10
2023-04-04T03:48:32.140Z,1.70
2023-04-04T03:50:58.833Z,1.15
2023-04-04T03:53:25.637Z,0.88
2023-04-04T03:55:52.813Z,1.30
2023-04-04T03:58:19.554Z,1.15
2023-04-04T04:00:45.999Z,1.27
2023-04-04T04:03:13.652Z,1.10
2023-04-04T04:05:42.473Z,1.40
2023-04-04T04:08:08.913Z,1.58
2023-04-04T04:10:35.299Z,1.10
2023-04-04T04:13:01.791Z,1.40
2023-04-04T04:15:28.573Z,1.20
2023-04-04T04:17:55.082Z,1.20
2023-04-04T04:20:21.586Z,1.25
2023-04-04T04:22:48.123Z,1.40
2023-04-04T04:25:15.073Z,1.52
2023-04-04T04:27:41.682Z,1.13
2023-04-04T04:30:08.919Z,0.90
2023-04-04T04:32:35.292Z,0.98
2023-04-04T04:35:01.844Z,0.80
2023-04-04T04:37:28.621Z,0.75
2023-04-04T04:39:55.450Z,1.23
2023-04-04T04:42:22.414Z,1.20
2023-04-04T04:44:48.973Z,1.15
2023-04-04T04:47:15.436Z,1.30
2023-04-04T04:49:43.544Z,0.93
2023-04-04T04:52:10.024Z,1.30
2023-04-04T04:54:36.687Z,1.38
2023-04-04T04:57:03.247Z,1.20
2023-04-04T04:59:29.759Z,1.10
2023-04-04T05:01:56.312Z,1.48
2023-04-04T05:04:22.769Z,1.35
2023-04-04T05:06:49.137Z,1.30
2023-04-04T05:09:15.540Z,1.05
2023-04-04T05:11:42.092Z,1.00
2023-04-04T05:14:08.496Z,1.65
2023-04-04T05:16:34.958Z,1.27
2023-04-04T05:19:01.461Z,1.10
2023-04-04T05:21:28.049Z,1.38
2023-04-04T05:23:55.088Z,1.27
2023-04-04T05:26:21.606Z,1.40
2023-04-04T05:28:48.039Z,1.30
2023-04-04T05:31:14.433Z,1.45
2023-04-04T05:33:41.065Z,1.50
2023-04-04T05:36:07.488Z,1.52
2023-04-04T05:38:33.805Z,1.38
2023-04-04T05:41:00.365Z,1.75
2023-04-04T05:43:27.204Z,1.77
2023-04-04T05:45:53.584Z,1.95
2023-04-04T05:48:20.004Z,1.80
2023-04-04T05:50:47.207Z,2.47
2023-04-04T05:53:13.633Z,2.88
2023-04-04T05:55:40.079Z,1.98
2023-04-04T05:58:06.481Z,2.05
2023-04-04T06:00:33.078Z,1.70
2023-04-04T06:02:59.668Z,1.65
2023-04-04T06:05:26.171Z,2.33
2023-04-04T06:07:52.531Z,2.33
2023-04-04T06:10:18.942Z,1.73
2023-04-04T06:12:45.533Z,1.52
2023-04-04T06:15:11.979Z,1.40
2023-04-04T06:17:38.414Z,1.77
2023-04-04T06:20:05.201Z,1.40
2023-04-04T06:22:32.044Z,1.45
2023-04-04T06:24:58.558Z,1.63
2023-04-04T06:27:25.023Z,1.48
2023-04-04T06:29:51.567Z,1.27
2023-04-04T06:32:18.194Z,1.02
2023-04-04T06:34:45.153Z,1.00
2023-04-04T06:37:11.561Z,1.30
2023-04-04T06:39:38.077Z,1.15
2023-04-04T06:42:04.488Z,1.33
2023-04-04T06:44:30.924Z,1.35
2023-04-04T06:46:58.153Z,1.33
2023-04-04T06:49:24.648Z,1.42
2023-04-04T06:51:51.088Z,1.00
2023-04-04T06:54:17.561Z,0.90
2023-04-04T06:56:44.052Z,1.17
2023-04-04T06:59:12.323Z,1.05
2023-04-04T07:01:38.894Z,1.60
2023-04-04T07:04:05.467Z,1.15
2023-04-04T07:06:32.013Z,1.00
2023-04-04T07:08:58.612Z,1.02
2023-04-04T07:11:25.046Z,0.90
2023-04-04T07:13:51.562Z,1.42
2023-04-04T07:16:18.146Z,1.42
2023-04-04T07:18:44.521Z,1.15
2023-04-04T07:21:10.912Z,1.58
2023-04-04T07:23:37.522Z,1.40
2023-04-04T07:26:04.013Z,1.90
2023-04-04T07:28:31.232Z,1.65
2023-04-04T07:31:01.921Z,1.33
2023-04-04T07:33:28.504Z,1.10
2023-04-04T07:35:55.023Z,1.23
2023-04-04T07:38:21.998Z,1.08
2023-04-04T07:40:48.901Z,1.15
2023-04-04T07:43:15.314Z,1.27
2023-04-04T07:45:42.142Z,1.20
2023-04-04T07:48:11.199Z,1.10
2023-04-04T07:50:37.802Z,1.50
2023-04-04T07:53:04.367Z,1.10
2023-04-04T07:55:30.828Z,0.98
2023-04-04T07:57:58.494Z,0.80
2023-04-04T08:00:26.665Z,0.88
2023-04-04T08:02:53.905Z,0.77
2023-04-04T08:05:20.570Z,1.13
2023-04-04T08:07:47.376Z,0.90
2023-04-04T08:10:14.025Z,0.80
2023-04-04T08:12:40.649Z,0.93
2023-04-04T08:15:07.369Z,1.00
2023-04-04T08:17:33.916Z,0.75
2023-04-04T08:20:00.510Z,0.82
2023-04-04T08:22:27.177Z,0.80
2023-04-04T08:24:53.709Z,1.00
2023-04-04T08:27:20.552Z,0.80
2023-04-04T08:29:48.149Z,0.73
2023-04-04T08:32:17.797Z,0.70
2023-04-04T08:34:44.198Z,1.33
2023-04-04T08:37:11.487Z,1.00
2023-04-04T08:39:38.130Z,0.80
2023-04-04T08:42:05.777Z,0.80
2023-04-04T08:44:34.033Z,0.70
2023-04-04T08:47:01.244Z,0.80
2023-04-04T08:49:29.973Z,0.60
2023-04-04T08:51:56.819Z,0.80
2023-04-04T08:54:25.284Z,0.50
2023-04-04T08:56:53.099Z,0.47
2023-04-04T08:59:19.882Z,1.00
2023-04-04T09:01:46.560Z,1.00
2023-04-04T09:04:13.336Z,1.33
2023-04-04T09:06:40.223Z,0.82
2023-04-04T09:09:07.323Z,0.95
2023-04-04T09:11:34.081Z,1.42
2023-04-04T09:14:02.623Z,1.05
2023-04-04T09:16:29.116Z,1.00
2023-04-04T09:18:55.501Z,1.00
2023-04-04T09:21:21.914Z,0.70
2023-04-04T09:23:57.748Z,0.80
2023-04-04T09:26:24.196Z,0.88
2023-04-04T09:28:53.703Z,1.10
2023-04-04T09:31:20.245Z,0.90
2023-04-04T09:33:48.668Z,0.88
2023-04-04T09:36:17.129Z,0.70
2023-04-04T09:38:45.438Z,1.13
2023-04-04T09:41:14.816Z,0.95
2023-04-04T09:43:41.488Z,1.33
2023-04-04T09:46:08.169Z,0.70
2023-04-04T09:48:36.301Z,0.80
2023-04-04T09:51:12.342Z,0.80
2023-04-04T09:53:39.906Z,0.82
2023-04-04T09:56:06.832Z,0.90
2023-04-04T09:58:36.308Z,0.50
2023-04-04T10:01:04.056Z,0.60
2023-04-04T10:03:30.761Z,0.85
2023-04-04T10:06:06.782Z,0.70
2023-04-04T10:08:34.182Z,0.77
2023-04-04T10:13:36.077Z,0.90
2023-04-04T10:16:03.779Z,0.80
2023-04-04T10:18:31.126Z,0.90
2023-04-04T10:21:12.186Z,0.90
2023-04-04T10:23:42.206Z,0.75
2023-04-04T10:26:08.627Z,1.00
2023-04-04T10:28:35.318Z,0.82
2023-04-04T10:31:09.852Z,0.80
2023-04-04T10:33:36.558Z,0.82
2023-04-04T10:36:03.723Z,0.93
2023-04-04T10:38:33.872Z,0.80
2023-04-04T10:41:02.303Z,0.90
2023-04-04T10:43:31.428Z,0.97
2023-04-04T10:46:01.953Z,1.00
2023-04-04T10:48:28.583Z,1.00
2023-04-04T10:50:56.228Z,1.00
2023-04-04T10:53:23.928Z,1.00
2023-04-04T10:55:50.919Z,1.48
2023-04-04T10:58:17.455Z,1.00
2023-04-04T11:00:52.340Z,1.17
2023-04-04T11:03:18.837Z,0.95
2023-04-04T11:05:49.062Z,0.82
2023-04-04T11:08:22.449Z,0.95
2023-04-04T11:10:49.813Z,0.98
2023-04-04T11:13:22.846Z,1.00
2023-04-04T11:15:49.396Z,0.70
2023-04-04T11:18:30.702Z,0.80
2023-04-04T11:21:03.631Z,1.13
2023-04-04T11:23:50.399Z,0.93
2023-04-04T11:26:26.220Z,1.33
2023-04-04T11:28:52.663Z,0.80
2023-04-04T11:31:19.449Z,0.82
2023-04-04T11:34:04.677Z,1.67
2023-04-04T11:36:36.962Z,1.05
2023-04-04T11:39:08.107Z,0.98
2023-04-04T11:42:03.490Z,1.63
2023-04-04T11:44:30.927Z,1.00
2023-04-04T11:47:06.521Z,0.80
2023-04-04T11:49:41.250Z,0.90
2023-04-04T11:52:11.706Z,1.10
2023-04-04T11:54:38.649Z,0.80
2023-04-04T11:57:06.527Z,0.98
2023-04-04T11:59:33.127Z,0.93
2023-04-04T12:02:00.531Z,0.95
2023-04-04T12:04:27.609Z,1.00
2023-04-04T12:06:55.362Z,1.15
2023-04-04T12:09:23.277Z,0.80
2023-04-04T12:11:50.028Z,1.02
2023-04-04T12:14:16.810Z,1.10
2023-04-04T12:16:43.681Z,1.00
2023-04-04T12:19:10.093Z,1.15
2023-04-04T12:21:36.498Z,1.00
2023-04-04T12:24:03.651Z,1.00
2023-04-04T12:26:31.021Z,0.80
2023-04-04T12:28:58.239Z,1.10
2023-04-04T12:31:25.964Z,1.50
2023-04-04T12:33:52.686Z,1.20
2023-04-04T12:36:19.313Z,0.77
2023-04-04T12:38:59.759Z,1.23
2023-04-04T12:41:26.849Z,0.82
2023-04-04T12:44:03.392Z,1.00
2023-04-04T12:46:38.797Z,1.00
2023-04-04T12:49:06.633Z,0.90
2023-04-04T12:51:33.960Z,0.70
2023-04-04T12:54:00.672Z,0.88
2023-04-04T12:56:27.997Z,1.13
2023-04-04T12:58:59.942Z,1.40
2023-04-04T13:01:26.591Z,1.00
2023-04-04T13:03:53.167Z,1.00
2023-04-04T13:06:19.883Z,1.05
2023-04-04T13:08:52.868Z,1.10
2023-04-04T13:11:19.428Z,0.90
2023-04-04T13:16:31.615Z,0.90
2023-04-04T13:18:58.097Z,1.27
2023-04-04T13:21:26.171Z,1.13
2023-04-04T13:23:52.638Z,1.63
2023-04-04T13:26:19.070Z,1.02
2023-04-04T13:28:45.575Z,1.33
2023-04-04T13:31:13.431Z,1.23
2023-04-04T13:33:40.300Z,1.40
2023-04-04T13:36:06.848Z,1.23
2023-04-04T13:38:33.395Z,1.30
2023-04-04T13:41:00.131Z,1.40
2023-04-04T13:43:27.066Z,1.45
2023-04-04T13:45:55.836Z,1.20
2023-04-04T13:48:22.498Z,1.30
2023-04-04T13:50:52.862Z,1.27
2023-04-04T13:53:19.575Z,1.30
2023-04-04T13:58:20.086Z,1.00
2023-04-04T14:00:49.601Z,1.27
2023-04-04T14:03:16.829Z,1.20
2023-04-04T14:05:43.734Z,1.00
2023-04-04T14:08:10.335Z,1.50
2023-04-04T14:10:36.745Z,1.40
2023-04-04T14:13:03.598Z,1.27
2023-04-04T14:15:31.159Z,1.42
2023-04-04T14:17:57.587Z,1.20
2023-04-04T14:20:24.079Z,1.50
2023-04-04T14:22:50.665Z,1.30
2023-04-04T14:25:17.198Z,1.33
2023-04-04T14:27:43.762Z,1.50
2023-04-04T14:30:10.293Z,1.58
2023-04-04T14:32:36.648Z,1.52
2023-04-04T14:35:03.096Z,1.67
2023-04-04T14:37:29.468Z,1.33
2023-04-04T14:39:56.220Z,1.40
2023-04-04T14:42:22.713Z,1.40
2023-04-04T14:44:49.120Z,1.20
2023-04-04T14:47:15.904Z,1.40
2023-04-04T14:49:43.518Z,1.38
2023-04-04T14:52:09.957Z,1.50
2023-04-04T14:54:36.464Z,1.30
2023-04-04T14:57:03.415Z,1.10
2023-04-04T14:59:30.080Z,1.15
2023-04-04T15:01:57.246Z,1.27
2023-04-04T15:04:23.699Z,1.58
2023-04-04T15:06:50.122Z,1.20
2023-04-04T15:09:17.228Z,1.15
2023-04-04T15:11:43.751Z,1.25
2023-04-04T15:14:10.407Z,1.35
2023-04-04T15:16:39.506Z,1.30
2023-04-04T15:21:32.380Z,1.30
2023-04-04T15:23:58.866Z,1.40
2023-04-04T15:26:26.052Z,0.95
2023-04-04T15:28:52.803Z,1.15
2023-04-04T15:31:20.716Z,1.48
2023-04-04T15:33:47.183Z,1.45
2023-04-04T15:36:13.857Z,1.10
2023-04-04T15:38:40.313Z,1.00
2023-04-04T15:41:10.080Z,1.00
2023-04-04T15:43:36.767Z,0.90
2023-04-04T15:46:05.559Z,1.00
2023-04-04T15:48:32.581Z,1.30
2023-04-04T15:51:00.558Z,1.10
2023-04-04T15:53:26.938Z,1.00
2023-04-04T15:55:53.336Z,0.80
2023-04-04T15:58:19.741Z,1.00
2023-04-04T16:00:47.463Z,0.82
2023-04-04T16:03:14.317Z,1.10
2023-04-04T16:05:41.698Z,1.23
2023-04-04T16:08:08.159Z,0.82
2023-04-04T16:10:34.639Z,0.95
2023-04-04T16:13:01.080Z,1.10
2023-04-04T16:15:27.556Z,0.93
2023-04-04T16:17:56.268Z,1.10
2023-04-04T16:20:22.718Z,1.10
2023-04-04T16:22:49.082Z,1.13
2023-04-04T16:25:15.636Z,1.10
2023-04-04T16:27:42.082Z,1.70
2023-04-04T16:30:08.727Z,1.50
2023-04-04T16:32:35.637Z,0.80
2023-04-04T16:35:02.089Z,1.23
2023-04-04T16:37:28.481Z,1.35
2023-04-04T16:39:56.555Z,1.30
2023-04-04T16:42:22.976Z,1.42
2023-04-04T16:44:49.372Z,1.30
2023-04-04T16:47:15.981Z,1.20
2023-04-04T16:49:42.528Z,1.23
2023-04-04T16:52:10.656Z,1.48
2023-04-04T16:54:37.978Z,1.33
2023-04-04T16:57:04.395Z,1.17
2023-04-04T16:59:30.813Z,1.20
2023-04-04T17:01:57.277Z,1.25
2023-04-04T17:04:23.757Z,1.25
2023-04-04T17:06:50.204Z,1.15
2023-04-04T17:09:16.671Z,1.50
2023-04-04T17:11:45.056Z,1.15
2023-04-04T17:14:11.468Z,1.20
2023-04-04T17:16:37.947Z,0.98
2023-04-04T17:19:04.529Z,1.10
2023-04-04T17:21:32.049Z,1.05
2023-04-04T17:23:58.505Z,0.88
2023-04-04T17:26:24.918Z,0.90
2023-04-04T17:28:51.342Z,1.00
2023-04-04T17:31:18.429Z,1.00
2023-04-04T17:33:45.459Z,0.90
2023-04-04T17:36:11.977Z,0.88
2023-04-04T17:38:41.568Z,0.85
2023-04-04T17:41:08.266Z,1.10
2023-04-04T17:43:34.729Z,0.90
2023-04-04T17:46:06.458Z,0.90
2023-04-04T17:48:36.676Z,1.15
2023-04-04T17:51:06.211Z,0.85
2023-04-04T17:53:34.168Z,1.00
2023-04-04T17:56:00.973Z,0.70
2023-04-04T17:58:27.364Z,0.95
2023-04-04T18:00:55.841Z,0.90
2023-04-04T18:03:23.298Z,1.30
2023-04-04T18:05:50.124Z,0.80
2023-04-04T18:08:16.760Z,0.82
2023-04-04T18:10:43.384Z,1.10
2023-04-04T18:13:09.884Z,1.00
2023-04-04T18:15:36.419Z,0.98
2023-04-04T18:18:03.097Z,0.95
2023-04-04T18:20:34.970Z,0.80
2023-04-04T18:23:01.867Z,0.80
2023-04-04T18:25:28.268Z,0.63
2023-04-04T18:27:54.594Z,0.85
2023-04-04T18:30:21.207Z,0.70
2023-04-04T18:32:48.153Z,0.70
2023-04-04T18:35:14.770Z,0.90
2023-04-04T18:37:41.348Z,0.85
2023-04-04T18:40:08.295Z,0.80
2023-04-04T18:42:35.036Z,1.08
2023-04-04T18:45:02.150Z,0.90
2023-04-04T18:47:28.562Z,0.60
2023-04-04T18:49:54.876Z,0.90
2023-04-04T18:52:21.345Z,0.70
2023-04-04T18:54:47.723Z,1.00
2023-04-04T18:57:14.682Z,1.10
2023-04-04T18:59:41.303Z,1.05
2023-04-04T19:02:07.658Z,0.80
2023-04-04T19:04:35.770Z,0.80
2023-04-04T19:07:06.403Z,0.82
2023-04-04T19:09:33.389Z,0.80
2023-04-04T19:11:59.946Z,0.70
2023-04-04T19:14:26.510Z,0.88
2023-04-04T19:16:52.964Z,1.08
2023-04-04T19:19:21.488Z,0.82
2023-04-04T19:21:47.945Z,0.95
2023-04-04T19:24:15.021Z,0.98
2023-04-04T19:26:41.489Z,0.80
2023-04-04T19:29:07.949Z,0.90
2023-04-04T19:31:34.432Z,1.40
2023-04-04T19:34:03.270Z,1.10
2023-04-04T19:36:32.555Z,1.55
2023-04-04T19:38:58.960Z,1.17
2023-04-04T19:41:33.372Z,1.17
2023-04-04T19:43:59.758Z,1.20
2023-04-04T19:46:27.173Z,1.60
2023-04-04T19:48:54.755Z,1.60
2023-04-04T19:51:21.162Z,1.20
2023-04-04T19:53:51.838Z,1.27
2023-04-04T19:56:19.524Z,1.38
2023-04-04T19:58:48.363Z,1.13
2023-04-04T20:01:18.706Z,1.33
2023-04-04T20:03:45.436Z,1.30
2023-04-04T20:06:28.363Z,1.00
2023-04-04T20:08:55.736Z,1.15
2023-04-04T20:11:32.344Z,1.75
2023-04-04T20:14:19.999Z,1.63
2023-04-04T20:16:46.453Z,1.45
2023-04-04T20:19:13.644Z,1.90
2023-04-04T20:21:40.250Z,1.55
2023-04-04T20:24:09.788Z,1.58
2023-04-04T20:29:05.338Z,2.10
2023-04-04T20:31:34.251Z,2.38
2023-04-04T20:34:00.716Z,1.80
2023-04-04T20:36:33.217Z,2.45
2023-04-04T20:38:59.692Z,2.90
2023-04-04T20:41:26.488Z,2.20
2023-04-04T20:43:54.137Z,2.78
2023-04-04T20:46:21.448Z,2.80
2023-04-04T20:48:48.664Z,3.40
2023-04-04T20:51:23.952Z,3.17
2023-04-04T20:53:51.312Z,2.97
2023-04-04T20:56:36.737Z,2.33
2023-04-04T20:59:06.139Z,2.50
2023-04-04T21:01:32.609Z,2.00
2023-04-04T21:03:59.321Z,1.95
2023-04-04T21:06:29.382Z,1.80
2023-04-04T21:08:55.960Z,1.50
2023-04-04T21:11:24.479Z,1.15
2023-04-04T21:13:51.023Z,1.67
2023-04-04T21:16:19.143Z,1.15
2023-04-04T21:18:46.089Z,1.00
2023-04-04T21:21:19.417Z,0.80
2023-04-04T21:23:50.360Z,0.82
2023-04-04T21:26:30.289Z,1.27
2023-04-04T21:28:57.770Z,0.90
2023-04-04T21:31:36.037Z,1.02
2023-04-04T21:34:08.656Z,0.98
2023-04-04T21:36:35.134Z,1.42
2023-04-04T21:39:02.448Z,0.88
2023-04-04T21:41:31.128Z,0.98
2023-04-04T21:43:58.483Z,1.03
2023-04-04T21:46:26.035Z,0.80
2023-04-04T21:48:53.162Z,0.90
2023-04-04T21:51:19.626Z,1.00
2023-04-04T21:53:46.212Z,0.90
2023-04-04T21:56:13.462Z,1.10
2023-04-04T21:58:40.711Z,0.82
2023-04-04T22:01:07.184Z,0.90
2023-04-04T22:03:33.632Z,1.02
2023-04-04T22:06:00.031Z,0.93
2023-04-04T22:08:26.430Z,0.98
2023-04-04T22:10:52.876Z,0.80
2023-04-04T22:13:22.450Z,1.38
2023-04-04T22:15:49.694Z,0.80
2023-04-04T22:18:16.797Z,0.65
2023-04-04T22:20:46.895Z,0.98
2023-04-04T22:23:15.386Z,1.00
2023-04-04T22:25:41.954Z,0.80
2023-04-04T22:28:08.607Z,1.00
2023-04-04T22:30:36.034Z,0.80
2023-04-04T22:33:05.334Z,1.00
2023-04-04T22:35:38.121Z,0.90
2023-04-04T22:38:05.630Z,1.00
2023-04-04T22:40:32.919Z,1.05
2023-04-04T22:43:03.226Z,0.95
2023-04-04T22:45:30.015Z,1.45
2023-04-04T22:47:58.077Z,0.80
2023-04-04T22:50:24.846Z,1.20
2023-04-04T22:52:52.497Z,1.13
2023-04-04T22:55:19.846Z,1.23
2023-04-04T22:57:46.189Z,1.10
2023-04-04T23:00:13.421Z,0.90
2023-04-04T23:02:40.595Z,1.00
2023-04-04T23:05:08.229Z,1.13
2023-04-04T23:07:36.152Z,1.02
2023-04-04T23:10:03.420Z,1.20
2023-04-04T23:12:29.842Z,1.00
2023-04-04T23:14:58.827Z,1.23
2023-04-04T23:17:25.647Z,1.08
2023-04-04T23:19:52.008Z,1.02
2023-04-04T23:22:18.493Z,1.70
2023-04-04T23:24:44.870Z,0.98
2023-04-04T23:27:11.627Z,1.00
2023-04-04T23:29:38.115Z,0.90
2023-04-04T23:32:04.789Z,1.08
2023-04-04T23:34:31.248Z,1.30
2023-04-04T23:36:57.700Z,0.90
2023-04-04T23:39:24.090Z,1.20
2023-04-04T23:41:51.236Z,0.98
2023-04-04T23:44:17.855Z,1.05
2023-04-04T23:46:44.436Z,1.05
2023-04-04T23:49:14.487Z,0.90
2023-04-04T23:51:42.357Z,1.00
2023-04-04T23:54:09.668Z,1.27
2023-04-04T23:56:36.195Z,0.80
2023-04-04T23:59:02.968Z,1.00
